createdAt,value
2019-01-16T00:01:40.975Z,75.43
2019-01-16T00:04:41.089Z,75.15
2019-01-16T00:07:34.600Z,74.75
2019-01-16T00:10:21.426Z,74.87
2019-01-16T00:13:08.368Z,74.93
2019-01-16T00:15:53.560Z,75.02
2019-01-16T00:18:38.391Z,75.03
2019-01-16T00:21:29.477Z,75.09
2019-01-16T00:24:23.873Z,74.72
2019-01-16T00:27:21.051Z,75.21
2019-01-16T00:30:07.937Z,75.19
2019-01-16T00:32:49.099Z,75.22
2019-01-16T00:35:36.107Z,75.60
2019-01-16T00:38:25.134Z,75.70
2019-01-16T00:41:19.447Z,75.58
2019-01-16T00:44:05.970Z,75.08
2019-01-16T00:47:03.183Z,75.53
2019-01-16T00:49:51.540Z,75.08
2019-01-16T00:52:39.844Z,75.46
2019-01-16T00:55:31.392Z,75.20
2019-01-16T00:58:19.686Z,74.53
2019-01-16T01:01:14.158Z,75.06
2019-01-16T01:04:02.465Z,75.81
2019-01-16T01:07:06.014Z,75.71
2019-01-16T01:10:12.229Z,75.24
2019-01-16T01:13:09.378Z,75.39
2019-01-16T01:15:57.670Z,75.48
2019-01-16T01:18:54.758Z,76.27
2019-01-16T01:21:41.772Z,75.84
2019-01-16T01:24:33.926Z,75.35
2019-01-16T01:27:30.976Z,75.70
2019-01-16T01:30:22.287Z,76.07
2019-01-16T01:33:08.961Z,76.85
2019-01-16T01:36:12.253Z,76.71
2019-01-16T01:38:49.271Z,77.04
2019-01-16T01:41:37.584Z,76.85
2019-01-16T01:44:20.887Z,77.00
2019-01-16T01:47:11.957Z,76.35
2019-01-16T01:49:53.148Z,76.09
2019-01-16T01:52:39.949Z,76.06
2019-01-16T01:55:31.053Z,76.25
2019-01-16T01:58:21.433Z,75.39
2019-01-16T02:01:18.590Z,75.10
2019-01-16T02:04:18.433Z,74.82
2019-01-16T02:07:09.840Z,75.07
2019-01-16T02:10:03.986Z,74.73
2019-01-16T02:12:41.132Z,74.86
2019-01-16T02:15:40.047Z,75.56
2019-01-16T02:18:27.039Z,75.68
2019-01-16T02:21:21.377Z,75.02
2019-01-16T02:24:01.801Z,75.24
2019-01-16T02:26:56.081Z,75.63
2019-01-16T02:29:47.579Z,75.96
2019-01-16T02:32:38.069Z,75.84
2019-01-16T02:35:29.427Z,76.13
2019-01-16T02:38:21.173Z,75.73
2019-01-16T02:41:06.221Z,74.54
2019-01-16T02:43:57.381Z,73.88
2019-01-16T02:46:48.745Z,73.50
2019-01-16T02:49:29.105Z,74.57
2019-01-16T02:52:16.007Z,73.79
2019-01-16T02:55:07.169Z,74.71
2019-01-16T02:57:54.654Z,73.95
2019-01-16T03:00:34.718Z,73.86
2019-01-16T03:03:16.694Z,73.24
2019-01-16T03:05:54.913Z,73.35
2019-01-16T03:08:40.892Z,72.67
2019-01-16T03:11:44.143Z,73.81
2019-01-16T03:14:32.438Z,73.05
2019-01-16T03:17:26.672Z,73.49
2019-01-16T03:20:26.977Z,73.94
2019-01-16T03:23:07.575Z,73.39
2019-01-16T03:25:45.039Z,73.27
2019-01-16T03:28:33.354Z,72.96
2019-01-16T03:31:24.808Z,72.07
2019-01-16T03:34:13.114Z,72.82
2019-01-16T03:36:59.841Z,74.14
2019-01-16T03:40:06.122Z,72.54
2019-01-16T03:43:06.364Z,71.88
2019-01-16T03:45:51.536Z,73.00
2019-01-16T03:48:39.833Z,72.78
2019-01-16T03:51:28.153Z,73.23
2019-01-16T03:54:16.469Z,72.30
2019-01-16T03:57:16.747Z,71.73
2019-01-16T04:00:04.964Z,73.04
2019-01-16T04:02:51.765Z,72.33
2019-01-16T04:05:38.701Z,72.16
2019-01-16T04:08:25.688Z,72.33
2019-01-16T04:11:23.186Z,72.52
2019-01-16T04:14:10.244Z,71.67
2019-01-16T04:16:56.936Z,72.02
2019-01-16T04:19:36.486Z,72.77
2019-01-16T04:22:22.224Z,71.12
2019-01-16T04:25:19.377Z,71.46
2019-01-16T04:28:06.155Z,70.91
2019-01-16T04:30:53.175Z,71.18
2019-01-16T04:33:47.913Z,71.16
2019-01-16T04:36:45.352Z,70.39
2019-01-16T04:39:33.648Z,70.93
2019-01-16T04:42:11.214Z,71.03
2019-01-16T04:44:57.876Z,71.38
2019-01-16T04:47:40.522Z,71.64
2019-01-16T04:50:23.859Z,71.30
2019-01-16T04:53:13.316Z,70.09
2019-01-16T04:56:00.288Z,69.71
2019-01-16T04:58:47.031Z,70.11
2019-01-16T05:01:34.021Z,70.74
2019-01-16T05:04:20.854Z,71.20
2019-01-16T05:07:11.938Z,70.50
2019-01-16T05:10:03.081Z,70.62
2019-01-16T05:12:48.347Z,70.08
2019-01-16T05:15:25.197Z,69.40
2019-01-16T05:18:13.518Z,70.16
2019-01-16T05:21:01.184Z,70.16
2019-01-16T05:23:49.482Z,70.43
2019-01-16T05:26:37.046Z,70.14
2019-01-16T05:29:25.644Z,70.42
2019-01-16T05:32:16.691Z,69.66
2019-01-16T05:35:04.999Z,70.47
2019-01-16T05:37:56.380Z,70.53
2019-01-16T05:40:45.356Z,70.56
2019-01-16T05:43:26.369Z,70.68
2019-01-16T05:46:26.583Z,70.09
2019-01-16T05:49:23.875Z,70.14
2019-01-16T05:52:27.429Z,69.77
2019-01-16T05:55:18.547Z,69.28
2019-01-16T05:58:25.890Z,69.11
2019-01-16T06:01:26.280Z,69.13
2019-01-16T06:04:13.265Z,68.84
2019-01-16T06:07:10.431Z,68.42
2019-01-16T06:09:53.363Z,68.65
2019-01-16T06:12:47.767Z,69.03
2019-01-16T06:15:32.940Z,68.71
2019-01-16T06:18:30.430Z,68.27
2019-01-16T06:21:17.188Z,68.74
2019-01-16T06:24:04.278Z,69.25
2019-01-16T06:27:01.748Z,69.22
2019-01-16T06:29:53.230Z,69.41
2019-01-16T06:32:45.591Z,68.96
2019-01-16T06:35:27.127Z,69.47
2019-01-16T06:38:20.730Z,69.51
2019-01-16T06:41:14.874Z,69.90
2019-01-16T06:43:55.676Z,70.35
2019-01-16T06:46:43.991Z,69.71
2019-01-16T06:49:30.934Z,70.71
2019-01-16T06:52:12.197Z,70.60
2019-01-16T06:54:57.735Z,70.43
2019-01-16T06:57:44.531Z,69.60
2019-01-16T07:00:32.086Z,70.04
2019-01-16T07:03:19.055Z,69.68
2019-01-16T07:06:09.940Z,69.31
2019-01-16T07:09:07.361Z,69.94
2019-01-16T07:11:47.239Z,68.67
2019-01-16T07:14:53.794Z,69.31
2019-01-16T07:17:33.479Z,69.54
2019-01-16T07:20:17.929Z,69.47
2019-01-16T07:22:54.837Z,69.22
2019-01-16T07:25:55.219Z,69.56
2019-01-16T07:28:46.561Z,69.89
2019-01-16T07:31:33.750Z,69.79
2019-01-16T07:34:20.707Z,69.60
2019-01-16T07:37:15.574Z,69.96
2019-01-16T07:40:02.261Z,69.76
2019-01-16T07:42:47.278Z,69.46
2019-01-16T07:45:50.563Z,69.37
2019-01-16T07:48:37.536Z,69.35
2019-01-16T07:51:24.426Z,68.93
2019-01-16T07:54:24.747Z,68.65
2019-01-16T07:57:24.976Z,67.46
2019-01-16T08:00:31.547Z,67.97
2019-01-16T08:03:30.201Z,68.18
2019-01-16T08:06:33.263Z,68.14
2019-01-16T08:09:20.373Z,68.17
2019-01-16T08:12:14.795Z,68.19
2019-01-16T08:15:21.388Z,68.25
2019-01-16T08:18:02.749Z,67.78
2019-01-16T08:20:55.871Z,67.37
2019-01-16T08:23:53.284Z,67.55
2019-01-16T08:26:47.436Z,67.87
2019-01-16T08:29:41.893Z,67.20
2019-01-16T08:32:39.321Z,66.99
2019-01-16T08:35:23.471Z,66.51
2019-01-16T08:38:03.038Z,66.79
2019-01-16T08:40:59.973Z,66.08
2019-01-16T08:43:41.082Z,66.18
2019-01-16T08:46:32.179Z,65.64
2019-01-16T08:49:19.140Z,65.66
2019-01-16T08:52:22.713Z,65.00
2019-01-16T08:55:13.853Z,64.93
2019-01-16T08:58:14.281Z,64.92
2019-01-16T09:01:03.297Z,63.70
2019-01-16T09:04:04.149Z,63.76
2019-01-16T09:07:04.546Z,63.95
2019-01-16T09:09:52.853Z,64.79
2019-01-16T09:12:30.938Z,64.11
2019-01-16T09:15:17.715Z,64.60
2019-01-16T09:17:58.039Z,63.97
2019-01-16T09:20:49.183Z,63.02
2019-01-16T09:23:44.003Z,62.69
2019-01-16T09:26:32.360Z,63.33
2019-01-16T09:29:33.025Z,63.32
2019-01-16T09:32:13.591Z,62.26
2019-01-16T09:35:08.066Z,62.07
2019-01-16T09:37:56.350Z,62.10
2019-01-16T09:40:36.286Z,61.67
2019-01-16T09:43:36.759Z,62.65
2019-01-16T09:46:28.628Z,62.12
2019-01-16T09:49:23.063Z,61.73
2019-01-16T09:51:59.336Z,62.57
2019-01-16T09:54:56.476Z,61.87
2019-01-16T09:57:43.464Z,61.07
2019-01-16T10:00:33.779Z,60.95
2019-01-16T10:03:25.238Z,60.10
2019-01-16T10:06:09.221Z,60.70
2019-01-16T10:08:56.053Z,62.00
2019-01-16T10:11:47.246Z,61.70
2019-01-16T10:14:34.362Z,60.28
2019-01-16T10:17:19.943Z,59.35
2019-01-16T10:20:08.673Z,59.78
2019-01-16T10:23:03.029Z,59.77
2019-01-16T10:25:49.601Z,59.63
2019-01-16T10:28:37.906Z,59.46
2019-01-16T10:31:35.481Z,59.76
2019-01-16T10:34:28.383Z,60.37
2019-01-16T10:37:15.205Z,60.98
2019-01-16T10:40:09.612Z,60.57
2019-01-16T10:42:56.001Z,60.89
2019-01-16T10:45:42.745Z,61.29
2019-01-16T10:48:36.884Z,61.29
2019-01-16T10:51:23.804Z,60.39
2019-01-16T10:53:55.325Z,60.88
2019-01-16T10:56:49.850Z,58.95
2019-01-16T10:59:38.017Z,58.65
2019-01-16T11:02:14.978Z,59.53
2019-01-16T11:05:01.853Z,59.23
2019-01-16T11:07:43.145Z,58.67
2019-01-16T11:10:31.557Z,58.34
2019-01-16T11:13:19.844Z,58.13
2019-01-16T11:16:11.902Z,58.60
2019-01-16T11:18:58.937Z,58.71
2019-01-16T11:21:50.343Z,59.63
2019-01-16T11:24:37.267Z,59.75
2019-01-16T11:27:24.517Z,60.18
2019-01-16T11:30:11.465Z,58.91
2019-01-16T11:32:57.773Z,58.12
2019-01-16T11:35:53.782Z,58.57
2019-01-16T11:38:40.899Z,57.76
2019-01-16T11:41:25.052Z,58.67
2019-01-16T11:44:19.006Z,59.16
2019-01-16T11:47:06.099Z,59.09
2019-01-16T11:50:09.404Z,58.78
2019-01-16T11:53:03.341Z,58.12
2019-01-16T11:55:50.219Z,58.53
2019-01-16T11:58:53.537Z,58.56
2019-01-16T12:01:59.568Z,59.13
2019-01-16T12:05:05.866Z,57.69
2019-01-16T12:07:54.300Z,57.91
2019-01-16T12:10:42.801Z,56.90
2019-01-16T12:13:29.560Z,56.71
2019-01-16T12:16:35.807Z,57.29
2019-01-16T12:19:18.869Z,57.39
2019-01-16T12:22:08.255Z,57.46
2019-01-16T12:25:01.243Z,56.73
2019-01-16T12:27:48.010Z,56.67
2019-01-16T12:30:57.753Z,56.72
2019-01-16T12:33:40.892Z,57.62
2019-01-16T12:36:24.144Z,56.51
2019-01-16T12:39:27.725Z,56.78
2019-01-16T12:42:24.894Z,56.71
2019-01-16T12:45:20.493Z,55.70
2019-01-16T12:48:08.921Z,53.90
2019-01-16T12:51:15.519Z,52.23
2019-01-16T12:54:02.222Z,51.02
2019-01-16T12:56:51.775Z,48.63
2019-01-16T12:59:34.288Z,48.63
2019-01-16T13:02:28.925Z,47.01
2019-01-16T13:05:11.450Z,46.71
2019-01-16T13:07:58.246Z,45.52
2019-01-16T13:10:41.102Z,47.86
2019-01-16T13:13:44.371Z,49.04
2019-01-16T13:16:24.561Z,48.04
2019-01-16T13:19:24.945Z,48.31
2019-01-16T13:22:16.557Z,45.05
2019-01-16T13:25:19.881Z,48.07
2019-01-16T13:28:09.101Z,47.75
2019-01-16T13:30:48.167Z,47.24
2019-01-16T13:33:26.293Z,44.81
2019-01-16T13:36:14.690Z,43.61
2019-01-16T13:39:03.087Z,42.63
2019-01-16T13:41:46.316Z,45.67
2019-01-16T13:44:32.055Z,46.43
2019-01-16T13:47:23.466Z,46.11
2019-01-16T13:50:14.560Z,46.55
2019-01-16T13:53:02.726Z,46.79
2019-01-16T13:55:57.295Z,45.99
2019-01-16T13:58:48.525Z,48.34
2019-01-16T14:01:36.872Z,49.05
2019-01-16T14:04:12.549Z,48.11
2019-01-16T14:07:10.025Z,49.38
2019-01-16T14:10:02.041Z,53.44
2019-01-16T14:13:02.358Z,54.62
2019-01-16T14:16:05.845Z,55.74
2019-01-16T14:19:02.573Z,55.74
2019-01-16T14:22:05.149Z,56.70
2019-01-16T14:24:43.707Z,56.60
2019-01-16T14:27:31.021Z,57.59
2019-01-16T14:30:18.034Z,59.00
2019-01-16T14:33:05.174Z,59.65
2019-01-16T14:35:59.583Z,58.68
2019-01-16T14:38:46.410Z,58.16
2019-01-16T14:41:33.426Z,58.76
2019-01-16T14:44:30.871Z,58.67
2019-01-16T14:47:20.317Z,58.59
2019-01-16T14:50:14.817Z,58.43
2019-01-16T14:53:03.558Z,58.39
2019-01-16T14:55:57.874Z,58.74
2019-01-16T14:58:48.986Z,58.72
2019-01-16T15:01:43.351Z,59.14
2019-01-16T15:04:30.416Z,60.63
2019-01-16T15:07:18.391Z,59.30
2019-01-16T15:09:59.026Z,58.81
2019-01-16T15:12:50.766Z,59.33
2019-01-16T15:15:36.217Z,59.43
2019-01-16T15:18:22.982Z,59.43
2019-01-16T15:21:26.436Z,60.23
2019-01-16T15:24:14.767Z,60.44
2019-01-16T15:27:12.031Z,60.46
2019-01-16T15:29:51.249Z,60.07
2019-01-16T15:32:42.610Z,60.55
2019-01-16T15:35:30.961Z,60.81
2019-01-16T15:38:17.814Z,60.87
2019-01-16T15:41:15.255Z,61.42
2019-01-16T15:44:09.445Z,61.81
2019-01-16T15:47:03.850Z,61.92
2019-01-16T15:49:58.011Z,61.96
2019-01-16T15:52:50.268Z,62.86
2019-01-16T15:55:38.596Z,62.16
2019-01-16T15:58:29.913Z,62.38
2019-01-16T16:01:18.234Z,62.18
2019-01-16T16:04:10.502Z,62.64
2019-01-16T16:07:04.934Z,62.59
2019-01-16T16:09:40.391Z,62.33
2019-01-16T16:12:27.183Z,62.46
2019-01-16T16:15:13.977Z,62.57
2019-01-16T16:18:02.297Z,62.76
2019-01-16T16:20:49.213Z,62.79
2019-01-16T16:23:33.950Z,62.95
2019-01-16T16:26:12.527Z,63.53
2019-01-16T16:28:57.045Z,63.25
2019-01-16T16:31:45.333Z,63.66
2019-01-16T16:34:40.819Z,63.74
2019-01-16T16:37:31.963Z,63.76
2019-01-16T16:40:14.797Z,63.86
2019-01-16T16:43:01.589Z,63.86
2019-01-16T16:46:05.100Z,63.77
2019-01-16T16:48:59.235Z,63.97
2019-01-16T16:51:53.598Z,63.90
2019-01-16T16:54:40.401Z,65.05
2019-01-16T16:57:27.097Z,64.21
2019-01-16T17:00:28.435Z,64.36
2019-01-16T17:03:16.786Z,63.99
2019-01-16T17:06:03.736Z,64.05
2019-01-16T17:08:57.003Z,64.20
2019-01-16T17:11:57.228Z,64.31
2019-01-16T17:14:57.773Z,64.31
2019-01-16T17:17:51.878Z,64.43
2019-01-16T17:20:52.134Z,64.37
2019-01-16T17:23:49.677Z,64.65
2019-01-16T17:26:43.861Z,65.55
2019-01-16T17:29:44.330Z,65.04
2019-01-16T17:32:40.260Z,64.58
2019-01-16T17:35:37.688Z,65.24
2019-01-16T17:38:26.118Z,64.44
2019-01-16T17:41:14.405Z,64.72
2019-01-16T17:44:05.326Z,65.55
2019-01-16T17:46:51.251Z,65.11
2019-01-16T17:49:42.376Z,64.60
2019-01-16T17:52:29.415Z,64.79
2019-01-16T17:55:23.644Z,64.72
2019-01-16T17:58:10.215Z,64.97
2019-01-16T18:01:13.557Z,64.69
2019-01-16T18:04:16.698Z,65.27
2019-01-16T18:06:56.553Z,65.20
2019-01-16T18:09:39.158Z,65.15
2019-01-16T18:12:23.782Z,65.39
2019-01-16T18:15:15.162Z,65.57
2019-01-16T18:18:12.354Z,65.55
2019-01-16T18:20:48.697Z,65.44
2019-01-16T18:23:41.133Z,65.41
2019-01-16T18:26:32.472Z,66.03
2019-01-16T18:29:29.663Z,66.11
2019-01-16T18:32:16.691Z,65.97
2019-01-16T18:35:00.543Z,65.67
2019-01-16T18:37:47.820Z,65.79
2019-01-16T18:40:54.901Z,65.96
2019-01-16T18:43:43.213Z,65.97
2019-01-16T18:46:30.008Z,65.18
2019-01-16T18:49:08.315Z,65.96
2019-01-16T18:51:56.625Z,66.35
2019-01-16T18:54:56.883Z,65.88
2019-01-16T18:57:34.124Z,66.07
2019-01-16T19:00:31.653Z,66.48
2019-01-16T19:03:28.551Z,66.52
2019-01-16T19:06:29.194Z,66.69
2019-01-16T19:09:15.953Z,66.98
2019-01-16T19:12:07.036Z,67.51
2019-01-16T19:14:47.969Z,67.23
2019-01-16T19:17:36.262Z,67.36
2019-01-16T19:20:34.378Z,67.68
2019-01-16T19:23:25.010Z,67.72
2019-01-16T19:26:16.385Z,67.63
2019-01-16T19:29:07.803Z,67.30
2019-01-16T19:31:58.913Z,67.46
2019-01-16T19:34:48.234Z,67.39
2019-01-16T19:37:42.661Z,67.80
2019-01-16T19:40:21.226Z,67.26
2019-01-16T19:43:08.063Z,67.70
2019-01-16T19:45:59.177Z,67.67
2019-01-16T19:48:42.782Z,67.76
2019-01-16T19:51:46.309Z,68.17
2019-01-16T19:54:34.642Z,67.49
2019-01-16T19:57:29.186Z,67.65
2019-01-16T20:00:17.510Z,67.58
2019-01-16T20:03:04.605Z,67.58
2019-01-16T20:05:55.765Z,67.82
2019-01-16T20:08:42.781Z,67.99
2019-01-16T20:11:33.937Z,67.76
2019-01-16T20:14:33.470Z,68.26
2019-01-16T20:17:20.710Z,68.11
2019-01-16T20:20:07.694Z,68.70
2019-01-16T20:23:14.046Z,68.78
2019-01-16T20:26:01.050Z,69.09
2019-01-16T20:28:47.874Z,67.94
2019-01-16T20:31:48.170Z,68.27
2019-01-16T20:34:48.670Z,68.77
2019-01-16T20:37:35.686Z,68.70
2019-01-16T20:40:25.239Z,68.60
2019-01-16T20:43:25.979Z,68.90
2019-01-16T20:46:12.789Z,68.48
2019-01-16T20:49:16.477Z,68.15
2019-01-16T20:52:13.212Z,68.35
2019-01-16T20:55:01.621Z,68.68
2019-01-16T20:57:52.998Z,68.57
2019-01-16T21:00:40.343Z,68.70
2019-01-16T21:03:38.123Z,68.54
2019-01-16T21:06:24.989Z,68.57
2019-01-16T21:09:14.545Z,69.33
2019-01-16T21:12:21.056Z,68.69
2019-01-16T21:15:21.419Z,69.00
2019-01-16T21:18:03.039Z,68.33
2019-01-16T21:20:49.931Z,68.39
2019-01-16T21:23:34.300Z,69.06
2019-01-16T21:26:28.752Z,68.28
2019-01-16T21:29:25.999Z,68.99
2019-01-16T21:32:17.469Z,69.36
2019-01-16T21:35:11.977Z,68.94
2019-01-16T21:38:00.367Z,68.90
2019-01-16T21:40:54.551Z,68.50
2019-01-16T21:43:48.694Z,68.43
2019-01-16T21:46:39.815Z,68.20
2019-01-16T21:49:34.258Z,68.72
2019-01-16T21:52:37.739Z,68.88
2019-01-16T21:55:16.849Z,68.91
2019-01-16T21:57:59.399Z,69.00
2019-01-16T22:00:46.103Z,69.46
2019-01-16T22:03:35.775Z,68.43
2019-01-16T22:06:23.030Z,69.04
2019-01-16T22:09:15.281Z,68.85
2019-01-16T22:12:09.656Z,68.65
2019-01-16T22:15:06.347Z,69.46
2019-01-16T22:18:06.694Z,69.63
2019-01-16T22:21:10.222Z,69.02
2019-01-16T22:24:00.389Z,69.01
2019-01-16T22:26:45.421Z,69.04
2019-01-16T22:29:32.181Z,68.96
2019-01-16T22:32:09.566Z,69.82
2019-01-16T22:35:01.066Z,69.15
2019-01-16T22:37:52.824Z,68.90
2019-01-16T22:40:41.449Z,69.03
2019-01-16T22:43:32.532Z,68.80
2019-01-16T22:46:30.090Z,68.92
2019-01-16T22:49:25.255Z,68.39
2019-01-16T22:52:12.060Z,69.08
2019-01-16T22:55:18.629Z,69.07
2019-01-16T22:58:06.948Z,68.76
2019-01-16T23:01:00.286Z,68.77
2019-01-16T23:03:50.302Z,68.87
2019-01-16T23:06:47.353Z,68.65
2019-01-16T23:09:44.701Z,68.21
2019-01-16T23:12:31.449Z,67.74
2019-01-16T23:15:18.361Z,67.87
2019-01-16T23:18:21.917Z,67.32
2019-01-16T23:21:19.467Z,67.04
2019-01-16T23:23:55.268Z,67.23
2019-01-16T23:26:55.712Z,67.53
2019-01-16T23:29:34.877Z,67.51
2019-01-16T23:32:20.381Z,68.12
2019-01-16T23:35:08.679Z,67.94
2019-01-16T23:38:06.063Z,68.33
2019-01-16T23:40:57.393Z,68.18
2019-01-16T23:44:00.667Z,68.17
2019-01-16T23:46:49.287Z,67.77
2019-01-16T23:49:38.333Z,68.27
2019-01-16T23:52:29.486Z,68.57
2019-01-16T23:55:14.770Z,67.79
2019-01-16T23:58:01.451Z,67.49
